sensor_id;sensor_type;location;lat;lon;timestamp;temperature;humidity
5027;DHT22;2532;52.480;13.354;2024-01-10T00:01:59;-4.20;84.20
5027;DHT22;2532;52.480;13.354;2024-01-10T00:04:26;-4.30;84.30
5027;DHT22;2532;52.480;13.354;2024-01-10T00:06:53;-4.30;84.50
5027;DHT22;2532;52.480;13.354;2024-01-10T00:09:20;-4.40;84.70
5027;DHT22;2532;52.480;13.354;2024-01-10T00:11:48;-4.30;85.00
5027;DHT22;2532;52.480;13.354;2024-01-10T00:14:16;-4.40;85.10
5027;DHT22;2532;52.480;13.354;2024-01-10T00:16:42;-4.30;85.40
5027;DHT22;2532;52.480;13.354;2024-01-10T00:19:09;-4.30;85.20
5027;DHT22;2532;52.480;13.354;2024-01-10T00:21:36;-4.30;85.20
5027;DHT22;2532;52.480;13.354;2024-01-10T00:24:06;-4.20;85.20
5027;DHT22;2532;52.480;13.354;2024-01-10T00:26:33;-4.20;85.10
5027;DHT22;2532;52.480;13.354;2024-01-10T00:29:01;-4.20;85.10
5027;DHT22;2532;52.480;13.354;2024-01-10T00:31:28;-4.20;85.20
5027;DHT22;2532;52.480;13.354;2024-01-10T00:33:55;-4.10;85.20
5027;DHT22;2532;52.480;13.354;2024-01-10T00:36:22;-4.10;84.80
5027;DHT22;2532;52.480;13.354;2024-01-10T00:38:49;-4.10;84.30
5027;DHT22;2532;52.480;13.354;2024-01-10T00:41:17;-4.10;84.30
5027;DHT22;2532;52.480;13.354;2024-01-10T00:43:44;-4.20;83.90
5027;DHT22;2532;52.480;13.354;2024-01-10T00:46:12;-4.20;83.70
5027;DHT22;2532;52.480;13.354;2024-01-10T00:48:39;-4.20;84.30
5027;DHT22;2532;52.480;13.354;2024-01-10T00:51:06;-4.20;84.50
5027;DHT22;2532;52.480;13.354;2024-01-10T00:53:34;-4.20;84.30
5027;DHT22;2532;52.480;13.354;2024-01-10T00:56:01;-4.20;84.20
5027;DHT22;2532;52.480;13.354;2024-01-10T00:58:28;-4.20;84.30
5027;DHT22;2532;52.480;13.354;2024-01-10T01:00:55;-4.20;84.10
5027;DHT22;2532;52.480;13.354;2024-01-10T01:03:23;-4.20;84.00
5027;DHT22;2532;52.480;13.354;2024-01-10T01:05:50;-4.20;84.30
5027;DHT22;2532;52.480;13.354;2024-01-10T01:08:17;-4.20;84.10
5027;DHT22;2532;52.480;13.354;2024-01-10T01:10:44;-4.20;83.80
5027;DHT22;2532;52.480;13.354;2024-01-10T01:13:11;-4.20;83.60
5027;DHT22;2532;52.480;13.354;2024-01-10T01:15:39;-4.20;83.40
5027;DHT22;2532;52.480;13.354;2024-01-10T01:18:06;-4.20;84.20
5027;DHT22;2532;52.480;13.354;2024-01-10T01:20:36;-4.20;83.70
5027;DHT22;2532;52.480;13.354;2024-01-10T01:23:03;-4.20;83.80
5027;DHT22;2532;52.480;13.354;2024-01-10T01:25:30;-4.20;83.40
5027;DHT22;2532;52.480;13.354;2024-01-10T01:27:58;-4.20;83.20
5027;DHT22;2532;52.480;13.354;2024-01-10T01:30:24;-4.20;83.50
5027;DHT22;2532;52.480;13.354;2024-01-10T01:32:51;-4.20;83.90
5027;DHT22;2532;52.480;13.354;2024-01-10T01:35:19;-4.20;84.00
5027;DHT22;2532;52.480;13.354;2024-01-10T01:37:49;-4.20;84.20
5027;DHT22;2532;52.480;13.354;2024-01-10T01:40:18;-4.20;84.40
5027;DHT22;2532;52.480;13.354;2024-01-10T01:42:45;-4.10;84.40
5027;DHT22;2532;52.480;13.354;2024-01-10T01:45:12;-4.10;84.10
5027;DHT22;2532;52.480;13.354;2024-01-10T01:47:39;-4.10;83.30
5027;DHT22;2532;52.480;13.354;2024-01-10T01:50:09;-4.10;82.90
5027;DHT22;2532;52.480;13.354;2024-01-10T01:52:37;-4.20;82.60
5027;DHT22;2532;52.480;13.354;2024-01-10T01:55:08;-4.20;82.60
5027;DHT22;2532;52.480;13.354;2024-01-10T01:57:36;-4.20;82.80
5027;DHT22;2532;52.480;13.354;2024-01-10T02:00:05;-4.20;83.00
5027;DHT22;2532;52.480;13.354;2024-01-10T02:02:32;-4.20;82.80
5027;DHT22;2532;52.480;13.354;2024-01-10T02:05:01;-4.20;82.80
5027;DHT22;2532;52.480;13.354;2024-01-10T02:07:29;-4.20;82.80
5027;DHT22;2532;52.480;13.354;2024-01-10T02:09:56;-4.30;83.00
5027;DHT22;2532;52.480;13.354;2024-01-10T02:12:24;-4.20;83.20
5027;DHT22;2532;52.480;13.354;2024-01-10T02:14:52;-4.20;83.00
5027;DHT22;2532;52.480;13.354;2024-01-10T02:17:19;-4.20;82.50
5027;DHT22;2532;52.480;13.354;2024-01-10T02:19:46;-4.20;82.50
5027;DHT22;2532;52.480;13.354;2024-01-10T02:22:12;-4.10;82.70
5027;DHT22;2532;52.480;13.354;2024-01-10T02:24:40;-4.20;82.70
5027;DHT22;2532;52.480;13.354;2024-01-10T02:27:08;-4.20;82.40
5027;DHT22;2532;52.480;13.354;2024-01-10T02:29:35;-4.20;82.10
5027;DHT22;2532;52.480;13.354;2024-01-10T02:32:02;-4.20;82.30
5027;DHT22;2532;52.480;13.354;2024-01-10T02:34:30;-4.30;82.40
5027;DHT22;2532;52.480;13.354;2024-01-10T02:36:57;-4.30;82.30
5027;DHT22;2532;52.480;13.354;2024-01-10T02:39:24;-4.30;82.20
5027;DHT22;2532;52.480;13.354;2024-01-10T02:41:51;-4.30;82.30
5027;DHT22;2532;52.480;13.354;2024-01-10T02:44:23;-4.30;82.30
5027;DHT22;2532;52.480;13.354;2024-01-10T02:46:50;-4.30;82.40
5027;DHT22;2532;52.480;13.354;2024-01-10T02:49:17;-4.40;82.50
5027;DHT22;2532;52.480;13.354;2024-01-10T02:51:44;-4.40;82.60
5027;DHT22;2532;52.480;13.354;2024-01-10T02:54:11;-4.40;82.80
5027;DHT22;2532;52.480;13.354;2024-01-10T02:56:38;-4.40;82.90
5027;DHT22;2532;52.480;13.354;2024-01-10T02:59:05;-4.40;82.80
5027;DHT22;2532;52.480;13.354;2024-01-10T03:01:34;-4.50;82.80
5027;DHT22;2532;52.480;13.354;2024-01-10T03:04:01;-4.50;82.70
5027;DHT22;2532;52.480;13.354;2024-01-10T03:06:28;-4.50;82.90
5027;DHT22;2532;52.480;13.354;2024-01-10T03:08:55;-4.50;83.70
5027;DHT22;2532;52.480;13.354;2024-01-10T03:11:22;-4.50;83.20
5027;DHT22;2532;52.480;13.354;2024-01-10T03:13:51;-4.50;83.00
5027;DHT22;2532;52.480;13.354;2024-01-10T03:16:18;-4.40;83.20
5027;DHT22;2532;52.480;13.354;2024-01-10T03:18:47;-4.50;83.10
5027;DHT22;2532;52.480;13.354;2024-01-10T03:21:14;-4.50;83.00
5027;DHT22;2532;52.480;13.354;2024-01-10T03:23:41;-4.50;83.00
5027;DHT22;2532;52.480;13.354;2024-01-10T03:26:09;-4.50;83.00
5027;DHT22;2532;52.480;13.354;2024-01-10T03:28:36;-4.50;83.20
5027;DHT22;2532;52.480;13.354;2024-01-10T03:31:03;-4.50;83.10
5027;DHT22;2532;52.480;13.354;2024-01-10T03:33:30;-4.40;82.90
5027;DHT22;2532;52.480;13.354;2024-01-10T03:35:59;-4.40;82.60
5027;DHT22;2532;52.480;13.354;2024-01-10T03:38:26;-4.40;82.40
5027;DHT22;2532;52.480;13.354;2024-01-10T03:40:53;-4.40;82.40
5027;DHT22;2532;52.480;13.354;2024-01-10T03:43:19;-4.40;82.30
5027;DHT22;2532;52.480;13.354;2024-01-10T03:45:46;-4.40;81.70
5027;DHT22;2532;52.480;13.354;2024-01-10T03:48:13;-4.50;81.30
5027;DHT22;2532;52.480;13.354;2024-01-10T03:50:40;-4.50;81.00
5027;DHT22;2532;52.480;13.354;2024-01-10T03:53:08;-4.50;80.90
5027;DHT22;2532;52.480;13.354;2024-01-10T03:55:35;-4.50;81.20
5027;DHT22;2532;52.480;13.354;2024-01-10T03:58:03;-4.50;81.40
5027;DHT22;2532;52.480;13.354;2024-01-10T04:00:30;-4.50;81.50
5027;DHT22;2532;52.480;13.354;2024-01-10T04:02:57;-4.50;82.10
5027;DHT22;2532;52.480;13.354;2024-01-10T04:05:23;-4.50;81.60
5027;DHT22;2532;52.480;13.354;2024-01-10T04:07:51;-4.40;81.50
5027;DHT22;2532;52.480;13.354;2024-01-10T04:10:19;-4.40;81.50
5027;DHT22;2532;52.480;13.354;2024-01-10T04:12:46;-4.40;81.60
5027;DHT22;2532;52.480;13.354;2024-01-10T04:15:13;-4.40;81.50
5027;DHT22;2532;52.480;13.354;2024-01-10T04:17:40;-4.30;81.60
5027;DHT22;2532;52.480;13.354;2024-01-10T04:20:08;-4.30;81.40
5027;DHT22;2532;52.480;13.354;2024-01-10T04:22:36;-4.30;81.40
5027;DHT22;2532;52.480;13.354;2024-01-10T04:25:06;-4.30;81.20
5027;DHT22;2532;52.480;13.354;2024-01-10T04:27:34;-4.30;81.00
5027;DHT22;2532;52.480;13.354;2024-01-10T04:30:01;-4.30;81.00
5027;DHT22;2532;52.480;13.354;2024-01-10T04:32:28;-4.20;81.10
5027;DHT22;2532;52.480;13.354;2024-01-10T04:34:55;-4.20;81.60
5027;DHT22;2532;52.480;13.354;2024-01-10T04:37:22;-4.20;80.40
5027;DHT22;2532;52.480;13.354;2024-01-10T04:39:49;-4.20;80.10
5027;DHT22;2532;52.480;13.354;2024-01-10T04:42:15;-4.20;80.00
5027;DHT22;2532;52.480;13.354;2024-01-10T04:44:44;-4.30;80.10
5027;DHT22;2532;52.480;13.354;2024-01-10T04:47:11;-4.30;80.40
5027;DHT22;2532;52.480;13.354;2024-01-10T04:49:38;-4.40;80.60
5027;DHT22;2532;52.480;13.354;2024-01-10T04:52:05;-4.50;80.90
5027;DHT22;2532;52.480;13.354;2024-01-10T04:54:32;-4.50;81.20
5027;DHT22;2532;52.480;13.354;2024-01-10T04:56:59;-4.50;81.30
5027;DHT22;2532;52.480;13.354;2024-01-10T04:59:26;-4.50;81.40
5027;DHT22;2532;52.480;13.354;2024-01-10T05:01:54;-4.40;81.50
5027;DHT22;2532;52.480;13.354;2024-01-10T05:04:21;-4.40;81.40
5027;DHT22;2532;52.480;13.354;2024-01-10T05:06:48;-4.40;81.50
5027;DHT22;2532;52.480;13.354;2024-01-10T05:09:15;-4.40;81.60
5027;DHT22;2532;52.480;13.354;2024-01-10T05:11:42;-4.40;81.30
5027;DHT22;2532;52.480;13.354;2024-01-10T05:14:12;-4.30;80.90
5027;DHT22;2532;52.480;13.354;2024-01-10T05:16:39;-4.40;80.40
5027;DHT22;2532;52.480;13.354;2024-01-10T05:19:08;-4.40;80.50
5027;DHT22;2532;52.480;13.354;2024-01-10T05:21:34;-4.40;80.80
5027;DHT22;2532;52.480;13.354;2024-01-10T05:24:01;-4.40;80.80
5027;DHT22;2532;52.480;13.354;2024-01-10T05:26:28;-4.50;80.90
5027;DHT22;2532;52.480;13.354;2024-01-10T05:28:56;-4.50;81.10
5027;DHT22;2532;52.480;13.354;2024-01-10T05:31:23;-4.50;81.10
5027;DHT22;2532;52.480;13.354;2024-01-10T05:33:50;-4.50;81.40
5027;DHT22;2532;52.480;13.354;2024-01-10T05:36:20;-4.50;81.50
5027;DHT22;2532;52.480;13.354;2024-01-10T05:38:48;-4.50;81.30
5027;DHT22;2532;52.480;13.354;2024-01-10T05:41:15;-4.50;81.30
5027;DHT22;2532;52.480;13.354;2024-01-10T05:43:41;-4.60;81.30
5027;DHT22;2532;52.480;13.354;2024-01-10T05:46:09;-4.50;81.30
5027;DHT22;2532;52.480;13.354;2024-01-10T05:48:36;-4.50;81.40
5027;DHT22;2532;52.480;13.354;2024-01-10T05:51:04;-4.50;81.40
5027;DHT22;2532;52.480;13.354;2024-01-10T05:53:32;-4.50;81.90
5027;DHT22;2532;52.480;13.354;2024-01-10T05:55:59;-4.50;81.10
5027;DHT22;2532;52.480;13.354;2024-01-10T05:58:26;-4.50;81.20
5027;DHT22;2532;52.480;13.354;2024-01-10T06:00:53;-4.40;81.20
5027;DHT22;2532;52.480;13.354;2024-01-10T06:03:20;-4.50;81.00
5027;DHT22;2532;52.480;13.354;2024-01-10T06:05:47;-4.50;81.10
5027;DHT22;2532;52.480;13.354;2024-01-10T06:08:14;-4.50;81.10
5027;DHT22;2532;52.480;13.354;2024-01-10T06:10:42;-4.50;81.20
5027;DHT22;2532;52.480;13.354;2024-01-10T06:13:09;-4.50;81.40
5027;DHT22;2532;52.480;13.354;2024-01-10T06:15:36;-4.50;81.60
5027;DHT22;2532;52.480;13.354;2024-01-10T06:18:03;-4.40;81.50
5027;DHT22;2532;52.480;13.354;2024-01-10T06:20:30;-4.40;81.20
5027;DHT22;2532;52.480;13.354;2024-01-10T06:22:58;-4.50;81.00
5027;DHT22;2532;52.480;13.354;2024-01-10T06:25:25;-4.50;81.20
5027;DHT22;2532;52.480;13.354;2024-01-10T06:27:54;-4.50;81.40
5027;DHT22;2532;52.480;13.354;2024-01-10T06:30:22;-4.50;81.70
5027;DHT22;2532;52.480;13.354;2024-01-10T06:32:48;-4.50;82.00
5027;DHT22;2532;52.480;13.354;2024-01-10T06:35:15;-4.50;81.80
5027;DHT22;2532;52.480;13.354;2024-01-10T06:37:42;-4.50;81.70
5027;DHT22;2532;52.480;13.354;2024-01-10T06:40:11;-4.50;81.70
5027;DHT22;2532;52.480;13.354;2024-01-10T06:42:38;-4.50;81.60
5027;DHT22;2532;52.480;13.354;2024-01-10T06:45:08;-4.50;81.70
5027;DHT22;2532;52.480;13.354;2024-01-10T06:47:35;-4.50;81.60
5027;DHT22;2532;52.480;13.354;2024-01-10T06:50:03;-4.50;81.60
5027;DHT22;2532;52.480;13.354;2024-01-10T06:52:31;-4.50;81.80
5027;DHT22;2532;52.480;13.354;2024-01-10T06:54:58;-4.50;82.00
5027;DHT22;2532;52.480;13.354;2024-01-10T06:57:24;-4.50;82.10
5027;DHT22;2532;52.480;13.354;2024-01-10T06:59:53;-4.50;82.40
5027;DHT22;2532;52.480;13.354;2024-01-10T07:02:23;-4.40;82.50
5027;DHT22;2532;52.480;13.354;2024-01-10T07:04:50;-4.50;82.10
5027;DHT22;2532;52.480;13.354;2024-01-10T07:07:16;-4.40;82.00
5027;DHT22;2532;52.480;13.354;2024-01-10T07:09:43;-4.50;81.80
5027;DHT22;2532;52.480;13.354;2024-01-10T07:12:11;-4.50;82.00
5027;DHT22;2532;52.480;13.354;2024-01-10T07:14:37;-4.50;82.10
5027;DHT22;2532;52.480;13.354;2024-01-10T07:17:05;-4.40;82.30
5027;DHT22;2532;52.480;13.354;2024-01-10T07:19:33;-4.40;82.40
5027;DHT22;2532;52.480;13.354;2024-01-10T07:22:00;-4.40;82.20
5027;DHT22;2532;52.480;13.354;2024-01-10T07:24:27;-4.30;82.20
5027;DHT22;2532;52.480;13.354;2024-01-10T07:26:54;-4.30;82.10
5027;DHT22;2532;52.480;13.354;2024-01-10T07:29:22;-4.30;82.00
5027;DHT22;2532;52.480;13.354;2024-01-10T07:31:49;-4.20;81.80
5027;DHT22;2532;52.480;13.354;2024-01-10T07:34:18;-4.20;81.80
5027;DHT22;2532;52.480;13.354;2024-01-10T07:36:48;-4.20;81.70
5027;DHT22;2532;52.480;13.354;2024-01-10T07:39:15;-4.20;81.70
5027;DHT22;2532;52.480;13.354;2024-01-10T07:41:44;-4.20;81.60
5027;DHT22;2532;52.480;13.354;2024-01-10T07:44:10;-4.10;81.80
5027;DHT22;2532;52.480;13.354;2024-01-10T07:46:37;-4.10;81.80
5027;DHT22;2532;52.480;13.354;2024-01-10T07:49:05;-4.10;81.90
5027;DHT22;2532;52.480;13.354;2024-01-10T07:51:32;-4.10;81.70
5027;DHT22;2532;52.480;13.354;2024-01-10T07:54:00;-4.10;81.70
5027;DHT22;2532;52.480;13.354;2024-01-10T07:56:28;-4.10;81.60
5027;DHT22;2532;52.480;13.354;2024-01-10T07:58:55;-4.10;81.50
5027;DHT22;2532;52.480;13.354;2024-01-10T08:01:22;-4.10;81.50
5027;DHT22;2532;52.480;13.354;2024-01-10T08:03:49;-4.20;81.30
5027;DHT22;2532;52.480;13.354;2024-01-10T08:06:16;-4.10;81.50
5027;DHT22;2532;52.480;13.354;2024-01-10T08:08:43;-4.20;81.40
5027;DHT22;2532;52.480;13.354;2024-01-10T08:11:11;-4.20;81.40
5027;DHT22;2532;52.480;13.354;2024-01-10T08:13:38;-4.20;81.40
5027;DHT22;2532;52.480;13.354;2024-01-10T08:16:06;-4.20;81.30
5027;DHT22;2532;52.480;13.354;2024-01-10T08:18:34;-4.20;81.10
5027;DHT22;2532;52.480;13.354;2024-01-10T08:21:01;-4.20;81.40
5027;DHT22;2532;52.480;13.354;2024-01-10T08:23:29;-4.10;81.70
5027;DHT22;2532;52.480;13.354;2024-01-10T08:25:57;-4.10;81.60
5027;DHT22;2532;52.480;13.354;2024-01-10T08:28:25;-4.10;81.30
5027;DHT22;2532;52.480;13.354;2024-01-10T08:30:53;-4.10;81.20
5027;DHT22;2532;52.480;13.354;2024-01-10T08:33:19;-4.00;81.00
5027;DHT22;2532;52.480;13.354;2024-01-10T08:35:46;-4.00;81.00
5027;DHT22;2532;52.480;13.354;2024-01-10T08:38:13;-3.90;80.70
5027;DHT22;2532;52.480;13.354;2024-01-10T08:40:40;-4.00;80.60
5027;DHT22;2532;52.480;13.354;2024-01-10T08:43:07;-3.90;81.10
5027;DHT22;2532;52.480;13.354;2024-01-10T08:45:35;-3.90;80.90
5027;DHT22;2532;52.480;13.354;2024-01-10T08:48:03;-3.80;81.00
5027;DHT22;2532;52.480;13.354;2024-01-10T08:50:32;-3.80;80.80
5027;DHT22;2532;52.480;13.354;2024-01-10T08:52:59;-3.80;80.50
5027;DHT22;2532;52.480;13.354;2024-01-10T08:55:29;-3.70;80.20
5027;DHT22;2532;52.480;13.354;2024-01-10T08:57:56;-3.70;79.80
5027;DHT22;2532;52.480;13.354;2024-01-10T09:00:23;-3.60;79.70
5027;DHT22;2532;52.480;13.354;2024-01-10T09:02:52;-3.60;79.70
5027;DHT22;2532;52.480;13.354;2024-01-10T09:05:19;-3.60;79.50
5027;DHT22;2532;52.480;13.354;2024-01-10T09:07:47;-3.60;79.20
5027;DHT22;2532;52.480;13.354;2024-01-10T09:10:14;-3.60;79.10
5027;DHT22;2532;52.480;13.354;2024-01-10T09:12:42;-3.50;79.10
5027;DHT22;2532;52.480;13.354;2024-01-10T09:15:12;-3.50;79.30
5027;DHT22;2532;52.480;13.354;2024-01-10T09:17:40;-3.40;79.60
5027;DHT22;2532;52.480;13.354;2024-01-10T09:20:09;-3.40;79.60
5027;DHT22;2532;52.480;13.354;2024-01-10T09:22:36;-3.40;79.50
5027;DHT22;2532;52.480;13.354;2024-01-10T09:25:04;-3.30;79.80
5027;DHT22;2532;52.480;13.354;2024-01-10T09:27:31;-3.30;79.50
5027;DHT22;2532;52.480;13.354;2024-01-10T09:29:59;-3.20;79.10
5027;DHT22;2532;52.480;13.354;2024-01-10T09:32:27;-3.10;78.70
5027;DHT22;2532;52.480;13.354;2024-01-10T09:34:54;-3.00;78.70
5027;DHT22;2532;52.480;13.354;2024-01-10T09:37:22;-3.00;78.50
5027;DHT22;2532;52.480;13.354;2024-01-10T09:39:50;-2.90;78.40
5027;DHT22;2532;52.480;13.354;2024-01-10T09:42:18;-2.80;78.70
5027;DHT22;2532;52.480;13.354;2024-01-10T09:44:55;-2.80;77.70
5027;DHT22;2532;52.480;13.354;2024-01-10T09:47:34;-2.70;77.50
5027;DHT22;2532;52.480;13.354;2024-01-10T09:50:05;-2.50;88.10
5027;DHT22;2532;52.480;13.354;2024-01-10T09:52:43;-2.10;91.90
5027;DHT22;2532;52.480;13.354;2024-01-10T09:55:24;-1.70;92.60
5027;DHT22;2532;52.480;13.354;2024-01-10T09:57:55;-1.30;91.50
5027;DHT22;2532;52.480;13.354;2024-01-10T10:00:23;-1.00;89.10
5027;DHT22;2532;52.480;13.354;2024-01-10T10:02:54;-0.90;84.70
5027;DHT22;2532;52.480;13.354;2024-01-10T10:05:23;-0.90;83.80
5027;DHT22;2532;52.480;13.354;2024-01-10T10:07:52;-0.80;81.60
5027;DHT22;2532;52.480;13.354;2024-01-10T10:10:23;-0.60;82.00
5027;DHT22;2532;52.480;13.354;2024-01-10T10:13:02;-0.60;78.30
5027;DHT22;2532;52.480;13.354;2024-01-10T10:15:41;-0.60;76.50
5027;DHT22;2532;52.480;13.354;2024-01-10T10:18:16;-0.60;75.50
5027;DHT22;2532;52.480;13.354;2024-01-10T10:20:45;-0.60;73.90
5027;DHT22;2532;52.480;13.354;2024-01-10T10:23:23;-0.70;73.40
5027;DHT22;2532;52.480;13.354;2024-01-10T10:25:51;-0.60;78.20
5027;DHT22;2532;52.480;13.354;2024-01-10T10:28:18;-0.40;78.90
5027;DHT22;2532;52.480;13.354;2024-01-10T10:30:53;-0.30;76.80
5027;DHT22;2532;52.480;13.354;2024-01-10T10:33:24;-0.30;75.80
5027;DHT22;2532;52.480;13.354;2024-01-10T10:35:55;-0.20;77.70
5027;DHT22;2532;52.480;13.354;2024-01-10T10:38:28;-0.10;74.60
5027;DHT22;2532;52.480;13.354;2024-01-10T10:41:06;0.00;75.60
5027;DHT22;2532;52.480;13.354;2024-01-10T10:43:39;0.00;72.90
5027;DHT22;2532;52.480;13.354;2024-01-10T10:46:14;0.00;69.70
5027;DHT22;2532;52.480;13.354;2024-01-10T10:48:44;-0.10;67.90
5027;DHT22;2532;52.480;13.354;2024-01-10T10:51:14;-0.20;67.70
5027;DHT22;2532;52.480;13.354;2024-01-10T10:53:49;-0.20;67.40
5027;DHT22;2532;52.480;13.354;2024-01-10T10:56:17;-0.40;67.30
5027;DHT22;2532;52.480;13.354;2024-01-10T10:58:46;-0.40;67.70
5027;DHT22;2532;52.480;13.354;2024-01-10T11:01:15;-0.50;68.10
5027;DHT22;2532;52.480;13.354;2024-01-10T11:03:45;-0.50;68.30
5027;DHT22;2532;52.480;13.354;2024-01-10T11:06:13;-0.60;67.50
5027;DHT22;2532;52.480;13.354;2024-01-10T11:08:47;-0.60;67.70
5027;DHT22;2532;52.480;13.354;2024-01-10T11:11:26;-0.60;67.70
5027;DHT22;2532;52.480;13.354;2024-01-10T11:14:20;-0.70;68.00
5027;DHT22;2532;52.480;13.354;2024-01-10T11:20:14;-0.70;67.10
5027;DHT22;2532;52.480;13.354;2024-01-10T11:26:07;-0.60;67.50
5027;DHT22;2532;52.480;13.354;2024-01-10T11:28:41;-0.60;67.30
5027;DHT22;2532;52.480;13.354;2024-01-10T11:34:13;-0.50;66.40
5027;DHT22;2532;52.480;13.354;2024-01-10T11:37:12;-0.50;66.70
5027;DHT22;2532;52.480;13.354;2024-01-10T11:39:41;-0.50;65.90
5027;DHT22;2532;52.480;13.354;2024-01-10T11:42:40;-0.50;65.70
5027;DHT22;2532;52.480;13.354;2024-01-10T11:45:38;-0.40;65.20
5027;DHT22;2532;52.480;13.354;2024-01-10T11:48:26;-0.40;65.00
5027;DHT22;2532;52.480;13.354;2024-01-10T11:50:58;-0.30;64.70
5027;DHT22;2532;52.480;13.354;2024-01-10T11:53:46;-0.30;64.70
5027;DHT22;2532;52.480;13.354;2024-01-10T11:56:19;-0.30;63.40
5027;DHT22;2532;52.480;13.354;2024-01-10T11:59:11;-0.30;63.30
5027;DHT22;2532;52.480;13.354;2024-01-10T12:01:50;-0.30;63.90
5027;DHT22;2532;52.480;13.354;2024-01-10T12:04:19;-0.20;64.40
5027;DHT22;2532;52.480;13.354;2024-01-10T12:06:48;-0.20;63.70
5027;DHT22;2532;52.480;13.354;2024-01-10T12:09:19;-0.10;63.00
5027;DHT22;2532;52.480;13.354;2024-01-10T12:11:47;-0.10;62.00
5027;DHT22;2532;52.480;13.354;2024-01-10T12:14:17;-0.10;62.20
5027;DHT22;2532;52.480;13.354;2024-01-10T12:16:46;0.00;62.30
5027;DHT22;2532;52.480;13.354;2024-01-10T12:19:24;0.10;62.10
5027;DHT22;2532;52.480;13.354;2024-01-10T12:21:57;0.20;60.50
5027;DHT22;2532;52.480;13.354;2024-01-10T12:24:27;0.20;59.70
5027;DHT22;2532;52.480;13.354;2024-01-10T12:26:56;0.30;58.40
5027;DHT22;2532;52.480;13.354;2024-01-10T12:29:26;0.30;58.40
5027;DHT22;2532;52.480;13.354;2024-01-10T12:32:07;0.40;58.80
5027;DHT22;2532;52.480;13.354;2024-01-10T12:34:38;0.40;57.90
5027;DHT22;2532;52.480;13.354;2024-01-10T12:37:06;0.50;57.40
5027;DHT22;2532;52.480;13.354;2024-01-10T12:39:34;0.50;57.20
5027;DHT22;2532;52.480;13.354;2024-01-10T12:42:13;0.60;57.50
5027;DHT22;2532;52.480;13.354;2024-01-10T12:44:55;0.70;58.00
5027;DHT22;2532;52.480;13.354;2024-01-10T12:47:34;0.80;58.50
5027;DHT22;2532;52.480;13.354;2024-01-10T12:50:07;0.90;58.70
5027;DHT22;2532;52.480;13.354;2024-01-10T12:52:41;1.00;58.80
5027;DHT22;2532;52.480;13.354;2024-01-10T12:55:17;1.10;59.20
5027;DHT22;2532;52.480;13.354;2024-01-10T12:57:47;1.20;58.60
5027;DHT22;2532;52.480;13.354;2024-01-10T13:00:26;1.20;57.90
5027;DHT22;2532;52.480;13.354;2024-01-10T13:02:57;1.20;57.30
5027;DHT22;2532;52.480;13.354;2024-01-10T13:05:24;1.30;57.10
5027;DHT22;2532;52.480;13.354;2024-01-10T13:07:52;1.30;57.40
5027;DHT22;2532;52.480;13.354;2024-01-10T13:10:25;1.40;57.80
5027;DHT22;2532;52.480;13.354;2024-01-10T13:12:52;1.40;58.10
5027;DHT22;2532;52.480;13.354;2024-01-10T13:15:23;1.50;58.00
5027;DHT22;2532;52.480;13.354;2024-01-10T13:17:50;1.50;56.30
5027;DHT22;2532;52.480;13.354;2024-01-10T13:20:24;1.50;55.90
5027;DHT22;2532;52.480;13.354;2024-01-10T13:23:02;1.60;55.50
5027;DHT22;2532;52.480;13.354;2024-01-10T13:25:40;1.60;56.20
5027;DHT22;2532;52.480;13.354;2024-01-10T13:28:18;1.60;55.40
5027;DHT22;2532;52.480;13.354;2024-01-10T13:30:57;1.60;55.60
5027;DHT22;2532;52.480;13.354;2024-01-10T13:33:32;1.70;54.80
5027;DHT22;2532;52.480;13.354;2024-01-10T13:36:00;1.60;54.80
5027;DHT22;2532;52.480;13.354;2024-01-10T13:38:30;1.60;54.90
5027;DHT22;2532;52.480;13.354;2024-01-10T13:41:01;1.60;54.80
5027;DHT22;2532;52.480;13.354;2024-01-10T13:43:31;1.60;55.30
5027;DHT22;2532;52.480;13.354;2024-01-10T13:46:04;1.60;55.70
5027;DHT22;2532;52.480;13.354;2024-01-10T13:48:35;1.50;56.20
5027;DHT22;2532;52.480;13.354;2024-01-10T13:51:04;1.50;56.30
5027;DHT22;2532;52.480;13.354;2024-01-10T13:53:32;1.50;56.60
5027;DHT22;2532;52.480;13.354;2024-01-10T13:56:02;1.50;56.90
5027;DHT22;2532;52.480;13.354;2024-01-10T13:58:30;1.40;57.10
5027;DHT22;2532;52.480;13.354;2024-01-10T14:01:03;1.40;57.30
5027;DHT22;2532;52.480;13.354;2024-01-10T14:03:31;1.40;57.00
5027;DHT22;2532;52.480;13.354;2024-01-10T14:06:05;1.30;57.20
5027;DHT22;2532;52.480;13.354;2024-01-10T14:08:36;1.30;57.50
5027;DHT22;2532;52.480;13.354;2024-01-10T14:11:15;1.30;57.70
5027;DHT22;2532;52.480;13.354;2024-01-10T14:13:54;1.30;58.30
5027;DHT22;2532;52.480;13.354;2024-01-10T14:16:26;1.30;57.50
5027;DHT22;2532;52.480;13.354;2024-01-10T14:18:58;1.30;57.90
5027;DHT22;2532;52.480;13.354;2024-01-10T14:21:35;1.30;58.10
5027;DHT22;2532;52.480;13.354;2024-01-10T14:24:03;1.30;58.20
5027;DHT22;2532;52.480;13.354;2024-01-10T14:26:31;1.30;58.10
5027;DHT22;2532;52.480;13.354;2024-01-10T14:29:08;1.30;58.10
5027;DHT22;2532;52.480;13.354;2024-01-10T14:31:45;1.20;58.10
5027;DHT22;2532;52.480;13.354;2024-01-10T14:34:16;1.30;57.90
5027;DHT22;2532;52.480;13.354;2024-01-10T14:37:11;1.20;58.10
5027;DHT22;2532;52.480;13.354;2024-01-10T14:43:06;1.20;58.70
5027;DHT22;2532;52.480;13.354;2024-01-10T14:45:43;1.30;58.90
5027;DHT22;2532;52.480;13.354;2024-01-10T14:48:21;1.20;58.90
5027;DHT22;2532;52.480;13.354;2024-01-10T14:50:50;1.30;59.10
5027;DHT22;2532;52.480;13.354;2024-01-10T14:53:18;1.30;59.10
5027;DHT22;2532;52.480;13.354;2024-01-10T14:55:59;1.20;59.20
5027;DHT22;2532;52.480;13.354;2024-01-10T14:59:00;1.20;59.30
5027;DHT22;2532;52.480;13.354;2024-01-10T15:02:10;1.20;59.60
5027;DHT22;2532;52.480;13.354;2024-01-10T15:04:52;1.20;59.90
5027;DHT22;2532;52.480;13.354;2024-01-10T15:07:33;1.20;60.50
5027;DHT22;2532;52.480;13.354;2024-01-10T15:10:17;1.20;60.80
5027;DHT22;2532;52.480;13.354;2024-01-10T15:13:10;1.20;60.90
5027;DHT22;2532;52.480;13.354;2024-01-10T15:15:46;1.20;61.00
5027;DHT22;2532;52.480;13.354;2024-01-10T15:18:22;1.10;61.20
5027;DHT22;2532;52.480;13.354;2024-01-10T15:24:17;1.10;61.40
5027;DHT22;2532;52.480;13.354;2024-01-10T15:26:54;1.10;61.70
5027;DHT22;2532;52.480;13.354;2024-01-10T15:32:17;1.10;61.20
5027;DHT22;2532;52.480;13.354;2024-01-10T15:34:48;1.00;61.10
5027;DHT22;2532;52.480;13.354;2024-01-10T15:37:43;1.00;60.90
5027;DHT22;2532;52.480;13.354;2024-01-10T15:40:28;1.00;60.60
5027;DHT22;2532;52.480;13.354;2024-01-10T15:42:56;1.00;60.40
5027;DHT22;2532;52.480;13.354;2024-01-10T15:45:28;1.00;60.40
5027;DHT22;2532;52.480;13.354;2024-01-10T15:48:10;0.90;60.40
5027;DHT22;2532;52.480;13.354;2024-01-10T15:50:39;0.90;60.40
5027;DHT22;2532;52.480;13.354;2024-01-10T15:53:11;0.90;60.90
5027;DHT22;2532;52.480;13.354;2024-01-10T15:59:01;0.90;62.20
5027;DHT22;2532;52.480;13.354;2024-01-10T16:01:32;0.80;62.70
5027;DHT22;2532;52.480;13.354;2024-01-10T16:04:15;0.80;63.10
5027;DHT22;2532;52.480;13.354;2024-01-10T16:06:44;0.80;63.50
5027;DHT22;2532;52.480;13.354;2024-01-10T16:09:18;0.80;63.40
5027;DHT22;2532;52.480;13.354;2024-01-10T16:11:46;0.70;63.60
5027;DHT22;2532;52.480;13.354;2024-01-10T16:14:40;0.60;64.00
5027;DHT22;2532;52.480;13.354;2024-01-10T16:17:08;0.60;64.10
5027;DHT22;2532;52.480;13.354;2024-01-10T16:19:35;0.60;64.40
5027;DHT22;2532;52.480;13.354;2024-01-10T16:22:02;0.60;64.90
5027;DHT22;2532;52.480;13.354;2024-01-10T16:24:29;0.50;65.20
5027;DHT22;2532;52.480;13.354;2024-01-10T16:26:56;0.60;65.70
5027;DHT22;2532;52.480;13.354;2024-01-10T16:29:23;0.50;66.10
5027;DHT22;2532;52.480;13.354;2024-01-10T16:31:51;0.50;66.60